Station: Mount Barker

  Atmospheric Gas Attenuation - ITU Rec 676-11   --------------- db/100km ---------------
Date Time Temp RH % AH g/m3 Dew Point Wind Direction Speed kph Gust kph Barometer mB Rainfall Since 9am 24GHz 47GHz 76GHz 122GHz 134GHz 241GHz
16 09:00 6.9 94 7.24 6 0 1013.1 0 17.0 25.6 37.6 98.5 88.4 302.5
15 09:00 6.5 100 7.5 6.5 0 1013.1 0.2 17.6 26.2 38.9 101.9 92.5 316.7
14 09:00 4.9 100 6.76 4.9 0 1013.1 0.2 16.0 25.4 36.5 95.6 84.0 286.8
13 09:00 7.3 100 7.9 7.3 0 1013.1 3 18.4 26.7 40.2 105.4 97.1 333.0
12 09:00 9 100 8.82 9 15 1013.1 12 20.3 27.7 43.2 113.6 107.8 370.9
11 09:00 6.8 81 6.2 3.8 4 1013.1 0.4 14.7 24.0 33.4 87.2 74.4 253.6
10 09:00 10.9 64 6.37 4.4 15 1013.1 0.1 15.0 23.2 32.4 84.5 72.8 248.3
09 09:00 7 81 6.28 4 0 1013.1 0.1 14.9 24.0 33.6 87.9 75.3 256.6
08 09:00 7.3 87 6.88 5.3 7 1013.1 0.1 16.2 24.9 35.9 94.0 83.0 283.8
07 09:00 7.9 85 6.98 5.5 7 1013.1 0 16.4 24.9 36.0 94.4 83.7 286.3
06 09:00 10.1 77 7.28 6.3 7 1013.1 0.1 16.9 24.8 36.3 95.0 85.3 292.2
05 09:00 9.5 100 9.1 9.5 7 1013.1 0.4 20.9 28.0 44.2 116.1 111.1 382.4
04 09:00 9.3 100 8.99 9.3 15 1013.1 4 20.7 27.9 43.8 115.1 109.8 377.9
03 09:00 9.7 100 9.22 9.7 15 1013.1 10 21.1 28.2 44.6 117.2 112.5 387.4
02 09:00 8 100 8.27 8 7 1013.1 17 19.2 27.1 41.4 108.7 101.4 348.2
01 09:00 12.7 55 6.12 4 22 1013.1 0 14.4 22.3 30.7 80.2 68.1 232.0
30 09:00 10.2 62 5.9 3.2 33 1013.1 0 14.0 22.6 30.8 80.5 67.5 229.7
29 09:00 6.7 83 6.31 4 0 1013.1 0 15.0 24.2 33.9 88.5 76.0 259.0
28 09:00 6 89 6.46 4.4 0 1013.1 0.1 15.3 24.6 34.8 91.0 78.7 268.4
27 09:00 6.2 95 6.99 5.5 0 1013.1 0.1 16.5 25.4 36.9 96.6 85.7 293.1
26 09:00 9.3 99 8.9 9.1 4 1013.1 2 20.5 27.8 43.4 114.1 108.6 373.4
25 09:00 10.7 87 8.55 8.7 0 1013.1 0.1 19.6 26.7 41.2 108.1 101.7 349.7
24 09:00 9.3 96 8.63 8.7 0 1013.1 1 19.9 27.3 42.3 111.0 104.7 360.0
23 09:00 10 100 9.4 10 0 1013.1 6 21.5 28.4 45.2 118.8 114.7 394.9
22 09:00 9.7 91 8.39 8.3 7 1013.1 1 19.3 26.8 41.0 107.7 100.8 346.5
21 09:00 9.6 95 8.7 8.8 7 1013.1 21 20.0 27.3 42.4 111.3 105.3 362.1
20 09:00 9.7 96 8.85 9.1 22 1013.1 2 20.3 27.5 43.0 112.9 107.3 369.0
19 09:00 14.3 51 6.27 4.3 37 1013.1 0 14.6 22.2 30.7 80.1 68.5 233.8
18 09:00 12.1 70 7.51 6.8 7 1013.1 0.1 17.3 24.6 36.3 95.0 86.1 295.3
16 09:00 12.8 87 9.75 10.7 22 1013.1 3 22.1 28.1 45.1 118.5 115.4 397.8
15 09:00 12.1 94 10.08 11.2 41 1013.1 16 22.9 28.9 46.9 123.4 121.1 417.8
14 09:00 10.4 89 8.58 8.6 33 1013.1 22 19.7 26.9 41.5 108.8 102.5 352.5
13 09:00 10 90 8.46 8.4 22 1013.1 0.8 19.5 26.8 41.2 108.1 101.4 348.5
12 09:00 9 70 6.17 3.8 0 1013.1 0 14.6 23.3 32.4 84.5 72.0 245.3
11 09:00 5.1 91 6.23 3.7 0 1013.1 0.2 14.9 24.5 34.2 89.5 76.5 260.6
10 09:00 3.7 97 6.05 3.2 0 1013.1 0.2 14.5 24.6 34.1 89.1 75.4 256.6
09 09:00 3.5 97 5.97 3 0 1013.1 0.1 14.4 24.5 33.8 88.4 74.5 253.4
08 09:00 3.8 90 5.65 2.3 0 1013.1 0 13.7 23.9 32.4 84.6 69.9 237.2
07 09:00 7.5 93 7.45 6.4 7 1013.1 0 17.4 25.8 38.2 100.1 90.6 310.3
06 09:00 7.8 91 7.43 6.5 0 1013.1 0 17.4 25.7 38.0 99.5 90.0 308.1
05 09:00 5.3 94 6.52 4.4 0 1013.1 0.1 15.5 24.9 35.3 92.4 80.2 273.7
04 09:00 7.4 93 7.4 6.3 4 1013.1 0.2 17.3 25.8 38.0 99.6 90.0 308.2
03 09:00 10.2 89 8.47 8.4 7 1013.1 2 19.5 26.7 41.1 107.9 101.3 348.1
02 09:00 11.3 99 10.1 11.1 7 1013.1 4 22.9 29.2 47.5 124.9 122.7 423.2
01 09:00 8 89 7.36 6.3 7 1013.1 24 17.2 25.5 37.6 98.4 88.8 304.0
31 09:00 10.5 93 9.02 9.5 15 1013.1 5 20.7 27.6 43.3 113.7 108.5 373.5
30 09:00 14.1 50 6.07 3.8 41 1013.1 0 14.2 21.9 30.0 78.3 66.3 225.9
28 09:00 11.7 92 9.62 10.4 4 1013.1 3 21.9 28.2 45.2 118.7 115.2 397.1
27 09:00 11.8 78 8.21 8.2 15 1013.1 0 18.9 25.8 39.2 102.9 95.7 328.8
26 09:00 10.5 63 6.11 3.9 22 1013.1 0.1 14.4 22.9 31.5 82.3 69.9 238.0
25 09:00 7.4 83 6.6 4.7 7 1013.1 1 15.6 24.4 34.7 90.8 79.2 270.2
24 09:00 9.5 93 8.47 8.5 7 1013.1 3 19.5 27.0 41.5 108.9 102.2 351.3
23 09:00 11 93 9.31 10 4 1013.1 8 21.3 27.9 44.2 116.3 111.9 385.3
22 09:00 10.2 95 9.04 9.4 7 1013.1 0.2 20.7 27.7 43.5 114.4 109.3 376.0
21 09:00 8.7 89 7.7 7 7 1013.1 7 17.9 25.9 38.6 101.3 92.6 317.5
20 09:00 11.4 79 8.11 8 22 1013.1 10 18.7 25.8 39.0 102.3 94.9 325.8
19 09:00 15.7 52 6.96 5.9 22 1013.1 0 16.0 22.8 32.6 85.4 75.5 258.6
18 09:00 14 68 8.2 8.3 7 1013.1 0 18.7 25.2 38.1 99.9 92.9 319.3
17 09:00 8.4 93 7.89 7.4 0 1013.1 0.1 18.3 26.3 39.6 103.8 95.6 327.9
16 09:00 8.9 77 6.75 5.2 4 1013.1 0.1 15.8 24.3 34.7 90.7 79.6 272.0
15 09:00 5 97 6.6 4.5 0 1013.1 0.1 15.7 25.1 35.8 93.7 81.7 278.6
14 09:00 9.7 73 6.73 5.2 0 1013.1 1 15.8 24.0 34.3 89.6 78.5 268.4
13 09:00 8 99 8.19 7.8 0 1013.1 9 19.0 26.9 41.1 107.8 100.3 344.3
12 09:00 11.2 66 6.69 5.2 15 1013.1 0 15.6 23.6 33.5 87.5 76.5 261.5
11 09:00 11.5 82 8.47 8.5 7 1013.1 0.2 19.4 26.4 40.4 106.1 99.6 342.4
10 09:00 9.6 95 8.7 8.8 7 1013.1 3 20.0 27.3 42.4 111.3 105.3 362.1
09 09:00 9.9 81 7.56 6.8 15 1013.1 22 17.5 25.3 37.5 98.2 89.3 306.0
08 09:00 12.5 90 9.9 11 22 1013.1 5 22.4 28.5 45.9 120.7 118.0 406.7
07 09:00 16.6 60 8.48 8.8 37 1013.1 0.1 19.2 24.9 38.0 99.6 93.4 321.3
06 09:00 13.3 49 5.66 2.9 7 1013.1 0 13.4 21.5 28.8 75.1 62.0 210.9
05 09:00 12.1 70 7.51 6.8 7 1013.1 0.1 17.3 24.6 36.3 95.0 86.1 295.3
04 09:00 11.5 83 8.57 8.7 0 1013.1 0.1 19.6 26.5 40.8 107.2 101.0 347.1
03 09:00 10.2 90 8.57 8.6 4 1013.1 1 19.7 26.9 41.5 109.0 102.7 353.0
02 09:00 13.5 86 10.06 11.3 15 1013.1 13 22.7 28.4 46.0 121.0 118.7 409.3
01 09:00 9.6 93 8.52 8.6 22 1013.1 8 19.6 27.0 41.6 109.3 102.8 353.3
30 09:00 6.7 95 7.22 6 0 1013.1 11 16.9 25.7 37.6 98.5 88.3 302.3
29 09:00 10.8 90 8.9 9.2 15 1013.1 7 20.4 27.3 42.6 111.9 106.4 366.2
28 09:00 14.9 72 9.18 10 7 1013.1 0.1 20.8 26.5 41.6 109.2 104.6 360.4
27 09:00 11.5 87 8.99 9.4 0 1013.1 0.1 20.5 27.2 42.6 111.9 106.7 367.3
26 09:00 15 94 12.05 14 15 1013.1 26 26.9 31.4 53.7 141.5 144.5 499.8
25 09:00 18.4 63 9.91 11.4 7 1013.1 0 22.1 26.6 42.6 112.0 109.4 377.6
24 09:00 15.6 78 10.37 11.8 0 1013.1 4 23.3 28.3 46.1 121.2 119.7 413.2
23 09:00 19.9 45 7.73 7.7 15 1013.1 0 17.5 22.9 33.7 88.3 80.6 277.0
22 09:00 14.4 93 11.5 13.3 0 1013.1 0.1 25.8 30.6 51.7 136.1 137.6 475.7
21 09:00 15.1 82 10.58 12 7 1013.1 0 23.8 28.8 47.2 124.3 123.4 426.0
20 09:00 15.5 90 11.9 13.9 15 1013.1 0.2 26.6 30.9 52.7 138.9 141.4 489.0
19 09:00 12.2 97 10.47 11.8 7 1013.1 3 23.7 29.6 48.6 127.8 126.6 436.8
18 09:00 13.6 82 9.65 10.6 7 1013.1 0.1 21.8 27.7 44.2 116.2 112.8 388.9
17 09:00 14.1 73 8.86 9.3 15 1013.1 0.4 20.1 26.2 40.7 106.8 101.4 349.2
16 09:00 16.5 82 11.51 13.5 15 1013.1 0 25.7 29.9 50.3 132.6 134.0 463.4
15 09:00 21.3 37 6.9 6.3 15 1013.1 0 15.7 21.4 30.3 79.1 69.8 239.1
14 09:00 23 39 8.02 8.6 0 1013.1 0 17.9 22.6 33.5 87.7 80.9 278.2
13 09:00 14.3 63 7.74 7.5 7 1013.1 0.1 17.7 24.4 36.2 94.8 86.7 297.4
12 09:00 12.4 72 7.87 7.6 15 1013.1 0.1 18.1 25.1 37.6 98.4 90.5 310.6
11 09:00 13.9 86 10.31 11.7 15 1013.1 0.2 23.2 28.7 46.8 123.2 121.5 419.4
10 09:00 18.2 71 11.03 13 4 1013.1 0 24.5 28.5 47.3 124.4 124.5 430.5
09 09:00 10.8 99 9.79 10.6 7 1013.1 0.1 22.3 28.8 46.4 122.1 119.0 410.3
08 09:00 11.3 85 8.67 8.9 15 1013.1 0 19.9 26.7 41.4 108.6 102.6 352.8
07 09:00 14.5 84 10.45 11.8 0 1013.1 0.1 23.5 28.8 47.1 123.8 122.5 423.0
06 09:00 13.1 93 10.61 12 0 1013.1 3 23.9 29.5 48.6 127.9 127.1 438.7

Last Refresh: 17-Jul-2020 02:17:40

Most of the information presented on this site is sourced from the Bureau of Meteorology.  Copyright in all material sourced from the Bureau of Meteorology resides with the Commonwealth of Australia.